createdAt,value
2019-04-21T00:00:31.890Z,13.68
2019-04-21T00:03:07.465Z,14.50
2019-04-21T00:05:52.685Z,14.58
2019-04-21T00:08:33.592Z,14.18
2019-04-21T00:10:56.550Z,15.40
2019-04-21T00:13:20.480Z,15.78
2019-04-21T00:15:46.653Z,15.90
2019-04-21T00:18:29.647Z,17.25
2019-04-21T00:21:10.999Z,16.75
2019-04-21T00:23:49.900Z,15.93
2019-04-21T00:26:16.505Z,16.70
2019-04-21T00:28:59.483Z,17.17
2019-04-21T00:31:23.189Z,15.38
2019-04-21T00:33:39.889Z,17.20
2019-04-21T00:36:13.151Z,18.12
2019-04-21T00:39:12.668Z,17.05
2019-04-21T00:41:32.050Z,16.32
2019-04-21T00:43:53.224Z,16.25
2019-04-21T00:46:26.723Z,17.02
2019-04-21T00:49:02.068Z,17.70
2019-04-21T00:51:49.772Z,17.17
2019-04-21T00:54:13.113Z,16.42
2019-04-21T00:56:41.308Z,16.95
2019-04-21T00:59:14.916Z,16.70
2019-04-21T01:01:46.293Z,16.25
2019-04-21T01:04:20.662Z,15.78
2019-04-21T01:06:49.595Z,15.80
2019-04-21T01:09:13.568Z,14.23
2019-04-21T01:11:49.586Z,15.05
2019-04-21T01:14:30.234Z,13.38
2019-04-21T01:16:56.075Z,13.93
2019-04-21T01:19:18.299Z,14.50
2019-04-21T01:21:31.798Z,14.90
2019-04-21T01:24:07.930Z,13.95
2019-04-21T01:26:43.779Z,14.50
2019-04-21T01:29:20.907Z,14.07
2019-04-21T01:31:48.420Z,14.20
2019-04-21T01:34:29.049Z,13.58
2019-04-21T01:36:54.741Z,14.50
2019-04-21T01:39:34.928Z,15.38
2019-04-21T01:42:03.535Z,14.87
2019-04-21T01:44:36.144Z,15.75
2019-04-21T01:46:58.456Z,16.17
2019-04-21T01:49:26.680Z,16.37
2019-04-21T01:52:17.615Z,16.30
2019-04-21T01:54:57.667Z,17.25
2019-04-21T01:57:22.933Z,16.20
2019-04-21T01:59:53.005Z,16.27
2019-04-21T02:02:32.296Z,16.65
2019-04-21T02:05:03.140Z,15.65
2019-04-21T02:07:33.906Z,16.93
2019-04-21T02:10:05.164Z,17.67
2019-04-21T02:12:33.431Z,16.95
2019-04-21T02:15:11.386Z,17.37
2019-04-21T02:17:38.684Z,16.62
2019-04-21T02:20:02.745Z,16.85
2019-04-21T02:25:18.168Z,16.70
2019-04-21T02:27:48.451Z,18.95
2019-04-21T02:30:22.286Z,17.57
2019-04-21T02:35:36.118Z,17.35
2019-04-21T02:40:34.938Z,17.12
2019-04-21T02:45:31.791Z,17.87
2019-04-21T02:48:03.956Z,17.70
2019-04-21T02:50:31.755Z,17.05
2019-04-21T02:53:01.308Z,17.23
2019-04-21T02:55:32.177Z,17.52
2019-04-21T02:58:09.995Z,17.75
2019-04-21T03:00:56.959Z,17.17
2019-04-21T03:03:37.778Z,15.93
2019-04-21T03:06:13.342Z,18.10
2019-04-21T03:08:50.112Z,18.17
2019-04-21T03:13:46.988Z,17.00
2019-04-21T03:16:23.475Z,13.25
2019-04-21T03:18:54.543Z,14.93
2019-04-21T03:23:54.086Z,15.23
2019-04-21T03:26:28.428Z,13.98
2019-04-21T03:28:52.691Z,14.43
2019-04-21T03:32:04.049Z,14.20
2019-04-21T03:34:28.904Z,14.38
2019-04-21T03:36:52.218Z,14.90
2019-04-21T03:38:57.181Z,15.63
2019-04-21T03:41:32.156Z,15.32
2019-04-21T03:44:01.079Z,14.53
2019-04-21T03:46:39.290Z,14.70
2019-04-21T03:54:09.323Z,15.35
2019-04-21T04:01:55.654Z,14.33
2019-04-21T04:07:21.208Z,13.95
2019-04-21T04:09:53.968Z,14.38
2019-04-21T04:14:51.295Z,14.58
2019-04-21T04:17:16.756Z,14.60
2019-04-21T04:25:03.511Z,14.98
2019-04-21T04:30:01.109Z,15.53
2019-04-21T04:32:33.020Z,15.75
2019-04-21T04:35:03.827Z,16.37
2019-04-21T04:40:10.434Z,15.98
2019-04-21T04:45:16.714Z,15.70
2019-04-21T04:47:42.561Z,16.10
2019-04-21T04:50:15.464Z,16.77
2019-04-21T04:55:22.117Z,16.05
2019-04-21T05:00:26.107Z,16.70
2019-04-21T05:02:52.298Z,16.70
2019-04-21T05:10:36.288Z,17.02
2019-04-21T05:12:53.231Z,17.02
2019-04-21T05:15:19.403Z,16.48
2019-04-21T05:22:56.394Z,15.38
2019-04-21T05:25:18.567Z,15.78
2019-04-21T05:27:52.484Z,16.20
2019-04-21T05:30:38.390Z,15.80
2019-04-21T05:33:19.407Z,16.15
2019-04-21T05:36:01.872Z,16.05
2019-04-21T05:38:27.374Z,15.32
2019-04-21T05:40:57.638Z,15.53
2019-04-21T05:43:32.414Z,15.80
2019-04-21T05:46:04.498Z,15.45
2019-04-21T05:48:59.294Z,15.30
2019-04-21T05:51:28.792Z,15.45
2019-04-21T05:54:09.088Z,15.03
2019-04-21T05:56:36.648Z,15.70
2019-04-21T05:59:02.427Z,16.48
2019-04-21T06:01:41.094Z,16.25
2019-04-21T06:04:16.914Z,15.53
2019-04-21T06:06:40.842Z,18.02
2019-04-21T06:09:08.277Z,18.05
2019-04-21T06:11:36.778Z,17.55
2019-04-21T06:14:17.002Z,14.47
2019-04-21T06:16:44.179Z,13.70
2019-04-21T06:19:11.379Z,15.00
2019-04-21T06:21:44.758Z,14.90
2019-04-21T06:24:17.606Z,13.93
2019-04-21T06:29:18.167Z,13.50
2019-04-21T06:32:16.755Z,12.47
2019-04-21T06:34:29.662Z,11.70
2019-04-21T06:37:01.457Z,12.73
2019-04-21T06:39:31.726Z,11.65
2019-04-21T06:42:01.283Z,11.55
2019-04-21T06:44:33.537Z,12.60
2019-04-21T06:47:09.815Z,12.78
2019-04-21T06:49:31.397Z,12.10
2019-04-21T06:52:19.316Z,10.90
2019-04-21T06:54:44.404Z,10.60
2019-04-21T06:57:12.023Z,10.78
2019-04-21T06:59:40.233Z,12.28
2019-04-21T07:04:46.470Z,13.83
2019-04-21T07:07:11.751Z,11.22
2019-04-21T07:09:46.705Z,10.08
2019-04-21T07:12:13.817Z,9.98
2019-04-21T07:14:51.028Z,8.53
2019-04-21T07:17:20.081Z,8.55
2019-04-21T07:22:19.590Z,7.87
2019-04-21T07:24:52.012Z,8.15
2019-04-21T07:27:22.222Z,9.15
2019-04-21T07:29:53.405Z,9.58
2019-04-21T07:32:26.760Z,9.95
2019-04-21T07:34:59.716Z,8.70
2019-04-21T07:37:28.492Z,8.98
2019-04-21T07:39:55.015Z,7.37
2019-04-21T07:42:24.115Z,4.92
2019-04-21T07:44:52.290Z,5.00
2019-04-21T07:47:26.432Z,5.58
2019-04-21T07:50:11.124Z,6.67
2019-04-21T07:52:53.382Z,6.95
2019-04-21T07:57:52.778Z,6.25
2019-04-21T08:02:53.994Z,6.33
2019-04-21T08:05:24.774Z,6.42
2019-04-21T08:10:29.647Z,7.25
2019-04-21T08:12:54.353Z,5.95
2019-04-21T08:15:38.619Z,5.72
2019-04-21T08:18:00.722Z,5.25
2019-04-21T08:20:29.072Z,6.33
2019-04-21T08:25:41.927Z,4.55
2019-04-21T08:28:05.302Z,4.30
2019-04-21T08:30:37.797Z,3.67
2019-04-21T08:38:10.345Z,3.50
2019-04-21T08:40:57.543Z,3.70
2019-04-21T08:43:12.590Z,4.17
2019-04-21T08:48:18.193Z,3.52
2019-04-21T08:50:44.482Z,3.87
2019-04-21T08:53:13.969Z,3.98
2019-04-21T08:56:00.893Z,3.60
2019-04-21T08:58:35.675Z,3.58
2019-04-21T09:01:33.334Z,4.25
2019-04-21T09:09:01.660Z,5.12
2019-04-21T09:11:28.881Z,5.30
2019-04-21T09:14:03.561Z,4.97
2019-04-21T09:16:33.866Z,5.20
2019-04-21T09:18:57.097Z,5.55
2019-04-21T09:21:39.517Z,5.30
2019-04-21T09:24:10.061Z,5.22
2019-04-21T09:26:35.599Z,5.08
2019-04-21T09:29:00.642Z,5.72
2019-04-21T09:31:26.604Z,6.25
2019-04-21T09:33:53.987Z,6.67
2019-04-21T09:36:25.329Z,5.92
2019-04-21T09:39:03.819Z,7.17
2019-04-21T09:41:25.947Z,6.10
2019-04-21T09:43:57.422Z,5.67
2019-04-21T09:46:27.619Z,6.08
2019-04-21T09:49:09.493Z,6.10
2019-04-21T09:51:35.365Z,5.40
2019-04-21T09:54:13.606Z,5.75
2019-04-21T09:56:47.273Z,6.05
2019-04-21T09:59:19.310Z,5.15
2019-04-21T10:01:56.003Z,5.05
2019-04-21T10:04:12.085Z,5.05
2019-04-21T10:06:41.455Z,4.83
2019-04-21T10:09:14.392Z,4.75
2019-04-21T10:11:42.019Z,5.00
2019-04-21T10:14:11.805Z,5.08
2019-04-21T10:16:43.021Z,4.35
2019-04-21T10:19:13.192Z,4.65
2019-04-21T10:21:42.762Z,5.15
2019-04-21T10:24:12.585Z,5.08
2019-04-21T10:26:43.076Z,4.90
2019-04-21T10:29:19.806Z,4.90
2019-04-21T10:31:45.080Z,4.87
2019-04-21T10:34:14.394Z,4.80
2019-04-21T10:36:44.874Z,5.70
2019-04-21T10:39:15.608Z,4.90
2019-04-21T10:41:45.769Z,5.00
2019-04-21T10:44:16.866Z,5.00
2019-04-21T10:46:48.935Z,5.58
2019-04-21T10:49:18.909Z,4.83
2019-04-21T10:51:48.902Z,5.55
2019-04-21T10:54:19.980Z,5.15
2019-04-21T10:56:50.896Z,4.70
2019-04-21T10:59:20.614Z,5.42
2019-04-21T11:01:50.477Z,4.80
2019-04-21T11:04:27.221Z,5.03
2019-04-21T11:06:52.798Z,5.10
2019-04-21T11:09:22.237Z,4.60
2019-04-21T11:11:53.372Z,4.50
2019-04-21T11:14:23.147Z,5.25
2019-04-21T11:16:53.429Z,5.33
2019-04-21T11:19:24.278Z,5.00
2019-04-21T11:21:57.130Z,4.92
2019-04-21T11:24:27.098Z,4.85
2019-04-21T11:26:58.055Z,4.97
2019-04-21T11:29:28.819Z,5.10
2019-04-21T11:31:58.907Z,5.22
2019-04-21T11:34:29.275Z,5.30
2019-04-21T11:36:59.460Z,4.75
2019-04-21T11:39:38.629Z,5.28
2019-04-21T11:42:03.742Z,4.70
2019-04-21T11:44:35.206Z,5.17
2019-04-21T11:47:06.931Z,4.75
2019-04-21T11:49:36.958Z,4.95
2019-04-21T11:52:07.039Z,4.17
2019-04-21T11:54:37.113Z,4.60
2019-04-21T11:57:12.362Z,4.90
2019-04-21T11:59:37.678Z,4.70
2019-04-21T12:02:07.853Z,4.80
2019-04-21T12:04:37.221Z,4.75
2019-04-21T12:07:07.196Z,5.20
2019-04-21T12:09:37.644Z,4.50
2019-04-21T12:12:07.561Z,4.97
2019-04-21T12:14:38.133Z,5.35
2019-04-21T12:17:07.966Z,5.58
2019-04-21T12:19:38.658Z,5.17
2019-04-21T12:22:19.302Z,4.78
2019-04-21T12:24:40.898Z,4.78
2019-04-21T12:27:10.324Z,4.58
2019-04-21T12:29:39.958Z,4.85
2019-04-21T12:32:28.345Z,4.67
2019-04-21T12:34:59.701Z,4.75
2019-04-21T12:37:30.994Z,4.70
2019-04-21T12:40:00.846Z,4.40
2019-04-21T12:42:30.709Z,4.90
2019-04-21T12:45:01.438Z,4.75
2019-04-21T12:47:32.116Z,4.20
2019-04-21T12:50:02.771Z,4.83
2019-04-21T12:52:33.603Z,4.67
2019-04-21T12:55:03.835Z,4.30
2019-04-21T12:57:33.619Z,4.10
2019-04-21T13:00:04.820Z,4.50
2019-04-21T13:02:35.857Z,4.58
2019-04-21T13:05:07.593Z,4.45
2019-04-21T13:07:37.845Z,4.22
2019-04-21T13:10:08.589Z,4.20
2019-04-21T13:12:39.193Z,4.53
2019-04-21T13:15:08.901Z,4.12
2019-04-21T13:17:39.421Z,4.70
2019-04-21T13:20:09.857Z,4.35
2019-04-21T13:22:39.771Z,4.83
2019-04-21T13:25:10.293Z,4.20
2019-04-21T13:27:40.870Z,4.42
2019-04-21T13:30:14.556Z,4.95
2019-04-21T13:32:45.240Z,5.00
2019-04-21T13:35:15.094Z,4.20
2019-04-21T13:37:45.771Z,4.05
2019-04-21T13:40:36.053Z,3.67
2019-04-21T13:42:55.033Z,3.90
2019-04-21T13:45:21.884Z,3.45
2019-04-21T13:47:52.676Z,4.58
2019-04-21T13:50:23.579Z,4.28
2019-04-21T13:52:54.372Z,4.67
2019-04-21T13:55:25.360Z,4.50
2019-04-21T13:57:56.632Z,4.22
2019-04-21T14:00:27.448Z,4.15
2019-04-21T14:02:58.642Z,4.35
2019-04-21T14:05:28.641Z,4.50
2019-04-21T14:07:58.201Z,4.17
2019-04-21T14:10:31.346Z,4.62
2019-04-21T14:13:02.450Z,4.47
2019-04-21T14:15:32.444Z,4.35
2019-04-21T14:18:02.771Z,4.50
2019-04-21T14:20:33.304Z,4.90
2019-04-21T14:23:15.587Z,5.30
2019-04-21T14:25:37.526Z,4.80
2019-04-21T14:28:08.079Z,4.92
2019-04-21T14:30:38.628Z,4.90
2019-04-21T14:33:08.082Z,4.47
2019-04-21T14:35:39.306Z,4.70
2019-04-21T14:38:09.044Z,4.85
2019-04-21T14:40:39.118Z,4.40
2019-04-21T14:43:10.052Z,4.10
2019-04-21T14:45:42.835Z,4.90
2019-04-21T14:48:16.836Z,4.80
2019-04-21T14:50:50.593Z,4.28
2019-04-21T14:53:21.671Z,4.40
2019-04-21T14:55:51.249Z,4.70
2019-04-21T14:58:21.179Z,4.78
2019-04-21T15:00:57.790Z,5.00
2019-04-21T15:03:27.806Z,4.25
2019-04-21T15:05:57.773Z,16.02
2019-04-21T15:08:27.280Z,37.63
2019-04-21T15:10:56.948Z,5.05
2019-04-21T15:13:27.881Z,4.70
2019-04-21T15:15:57.483Z,4.30
2019-04-21T15:18:26.893Z,4.33
2019-04-21T15:20:57.390Z,4.17
2019-04-21T15:23:29.773Z,4.28
2019-04-21T15:25:59.908Z,4.08
2019-04-21T15:28:32.103Z,4.20
2019-04-21T15:31:00.769Z,4.10
2019-04-21T15:33:30.628Z,4.72
2019-04-21T15:36:02.861Z,4.00
2019-04-21T15:38:33.908Z,4.28
2019-04-21T15:41:08.574Z,4.60
2019-04-21T15:43:36.375Z,4.33
2019-04-21T15:46:06.804Z,4.08
2019-04-21T15:48:37.048Z,4.47
2019-04-21T15:51:08.632Z,4.75
2019-04-21T15:53:41.946Z,4.33
2019-04-21T15:56:13.086Z,3.85
2019-04-21T15:58:44.235Z,3.90
2019-04-21T16:01:34.551Z,4.20
2019-04-21T16:04:04.735Z,4.58
2019-04-21T16:06:35.310Z,4.37
2019-04-21T16:09:08.417Z,22.13
2019-04-21T16:11:39.777Z,15.65
2019-04-21T16:14:10.139Z,5.50
2019-04-21T16:16:41.039Z,4.25
2019-04-21T16:19:12.124Z,4.58
2019-04-21T16:21:44.376Z,4.95
2019-04-21T16:24:14.143Z,4.22
2019-04-21T16:26:48.802Z,4.60
2019-04-21T16:29:18.167Z,5.22
2019-04-21T16:31:48.945Z,4.70
2019-04-21T16:34:19.845Z,4.90
2019-04-21T16:36:49.798Z,4.45
2019-04-21T16:39:20.488Z,4.85
2019-04-21T16:41:50.060Z,4.62
2019-04-21T16:44:20.909Z,4.20
2019-04-21T16:46:51.646Z,4.30
2019-04-21T16:49:22.038Z,4.72
2019-04-21T16:52:10.408Z,5.10
2019-04-21T16:54:42.044Z,5.40
2019-04-21T16:57:19.851Z,4.72
2019-04-21T16:59:50.887Z,4.90
2019-04-21T17:02:20.653Z,5.33
2019-04-21T17:04:50.326Z,4.50
2019-04-21T17:07:20.094Z,5.03
2019-04-21T17:09:50.620Z,4.47
2019-04-21T17:12:20.676Z,4.72
2019-04-21T17:15:08.745Z,4.60
2019-04-21T17:17:42.985Z,4.42
2019-04-21T17:19:55.923Z,6.37
2019-04-21T17:22:25.782Z,5.35
2019-04-21T17:24:56.032Z,4.92
2019-04-21T17:27:27.071Z,5.00
2019-04-21T17:29:56.800Z,4.78
2019-04-21T17:32:33.585Z,4.85
2019-04-21T17:34:58.099Z,5.03
2019-04-21T17:37:29.183Z,5.60
2019-04-21T17:40:03.213Z,4.80
2019-04-21T17:42:42.154Z,5.12
2019-04-21T17:45:03.523Z,5.37
2019-04-21T17:47:44.273Z,4.87
2019-04-21T17:50:23.275Z,6.15
2019-04-21T17:53:10.788Z,4.55
2019-04-21T17:55:46.089Z,4.70
2019-04-21T17:58:27.986Z,5.40
2019-04-21T18:03:50.424Z,6.35
2019-04-21T18:06:05.048Z,6.60
2019-04-21T18:08:40.148Z,6.22
2019-04-21T18:11:02.112Z,6.80
2019-04-21T18:13:26.572Z,6.67
2019-04-21T18:16:09.608Z,5.95
2019-04-21T18:18:28.731Z,6.05
2019-04-21T18:21:00.850Z,6.40
2019-04-21T18:23:44.923Z,6.08
2019-04-21T18:26:11.453Z,5.75
2019-04-21T18:28:36.805Z,6.42
2019-04-21T18:31:07.859Z,8.55
2019-04-21T18:33:40.895Z,7.58
2019-04-21T18:36:20.277Z,6.97
2019-04-21T18:39:04.217Z,6.35
2019-04-21T18:41:27.002Z,7.03
2019-04-21T18:47:06.809Z,11.18
2019-04-21T18:49:19.773Z,8.88
2019-04-21T18:52:01.230Z,7.08
2019-04-21T18:54:41.743Z,7.42
2019-04-21T18:57:07.660Z,6.78
2019-04-21T18:59:34.668Z,7.47
2019-04-21T19:02:06.097Z,8.93
2019-04-21T19:04:33.795Z,10.75
2019-04-21T19:07:18.120Z,9.30
2019-04-21T19:12:33.992Z,8.58
2019-04-21T19:14:52.491Z,8.38
2019-04-21T19:20:06.205Z,9.50
2019-04-21T19:22:28.155Z,10.05
2019-04-21T19:24:59.815Z,11.20
2019-04-21T19:27:26.352Z,9.93
2019-04-21T19:30:05.449Z,11.48
2019-04-21T19:32:30.376Z,11.40
2019-04-21T19:34:47.386Z,10.43
2019-04-21T19:37:20.911Z,10.23
2019-04-21T19:39:59.663Z,10.35
2019-04-21T19:42:34.614Z,9.90
2019-04-21T19:45:09.459Z,10.13
2019-04-21T19:47:46.057Z,10.88
2019-04-21T19:50:14.384Z,11.10
2019-04-21T19:52:36.609Z,13.90
2019-04-21T19:54:58.467Z,14.33
2019-04-21T19:57:29.161Z,13.10
2019-04-21T20:00:03.399Z,13.22
2019-04-21T20:02:30.419Z,11.97
2019-04-21T20:05:05.965Z,12.73
2019-04-21T20:07:44.519Z,12.53
2019-04-21T20:10:27.206Z,13.18
2019-04-21T20:12:58.346Z,12.43
2019-04-21T20:15:31.734Z,13.50
2019-04-21T20:17:52.983Z,14.70
2019-04-21T20:20:11.241Z,21.00
2019-04-21T20:22:45.007Z,25.05
2019-04-21T20:25:17.046Z,27.17
2019-04-21T20:27:54.556Z,28.62
2019-04-21T20:30:32.914Z,26.60
2019-04-21T20:33:05.946Z,21.25
2019-04-21T20:38:01.981Z,18.80
2019-04-21T20:40:33.190Z,19.12
2019-04-21T20:43:11.443Z,18.65
2019-04-21T20:45:44.253Z,17.95
2019-04-21T20:47:55.802Z,18.17
2019-04-21T20:50:36.459Z,17.07
2019-04-21T20:53:12.293Z,18.07
2019-04-21T20:55:43.089Z,19.32
2019-04-21T20:58:09.130Z,18.27
2019-04-21T21:00:55.717Z,19.30
2019-04-21T21:03:19.264Z,19.15
2019-04-21T21:05:42.510Z,18.42
2019-04-21T21:08:26.166Z,17.75
2019-04-21T21:10:43.919Z,18.02
2019-04-21T21:13:32.214Z,17.52
2019-04-21T21:16:09.086Z,16.82
2019-04-21T21:18:58.008Z,17.23
2019-04-21T21:21:03.398Z,16.97
2019-04-21T21:23:25.835Z,17.85
2019-04-21T21:25:56.204Z,18.42
2019-04-21T21:28:26.615Z,17.42
2019-04-21T21:31:02.697Z,17.52
2019-04-21T21:33:35.496Z,17.73
2019-04-21T21:36:06.432Z,18.75
2019-04-21T21:38:39.314Z,19.40
2019-04-21T21:40:59.809Z,20.85
2019-04-21T21:43:23.081Z,20.40
2019-04-21T21:45:55.297Z,20.95
2019-04-21T21:48:39.540Z,20.60
2019-04-21T21:51:04.414Z,21.12
2019-04-21T21:53:28.537Z,21.73
2019-04-21T21:55:54.717Z,22.07
2019-04-21T21:58:31.100Z,22.95
2019-04-21T22:01:00.478Z,23.30
2019-04-21T22:03:33.560Z,22.62
2019-04-21T22:06:06.228Z,21.17
2019-04-21T22:08:32.358Z,23.05
2019-04-21T22:11:03.309Z,20.95
2019-04-21T22:13:43.634Z,22.42
2019-04-21T22:16:10.689Z,21.37
2019-04-21T22:18:55.094Z,19.32
2019-04-21T22:21:18.786Z,18.90
2019-04-21T22:23:47.815Z,19.12
2019-04-21T22:26:09.285Z,18.42
2019-04-21T22:28:40.007Z,18.60
2019-04-21T22:31:15.450Z,17.10
2019-04-21T22:33:48.303Z,18.98
2019-04-21T22:36:26.734Z,17.95
2019-04-21T22:38:59.865Z,17.70
2019-04-21T22:41:24.515Z,18.37
2019-04-21T22:43:48.381Z,18.27
2019-04-21T22:46:16.418Z,18.48
2019-04-21T22:48:53.123Z,18.37
2019-04-21T22:51:25.290Z,18.80
2019-04-21T22:53:50.796Z,18.12
2019-04-21T22:56:25.648Z,18.15
2019-04-21T22:58:51.372Z,17.98
2019-04-21T23:01:28.586Z,17.52
2019-04-21T23:03:56.877Z,17.98
2019-04-21T23:06:28.681Z,17.40
2019-04-21T23:08:56.947Z,15.83
2019-04-21T23:11:28.091Z,16.82
2019-04-21T23:14:04.328Z,16.07
2019-04-21T23:16:35.242Z,15.88
2019-04-21T23:19:20.054Z,15.03
2019-04-21T23:21:53.813Z,15.20
2019-04-21T23:24:31.386Z,13.22
2019-04-21T23:26:50.723Z,13.20
2019-04-21T23:29:39.549Z,12.18
2019-04-21T23:31:57.351Z,11.63
2019-04-21T23:34:19.580Z,11.18
2019-04-21T23:36:52.200Z,10.03
2019-04-21T23:39:21.059Z,10.08
2019-04-21T23:41:47.893Z,9.53
2019-04-21T23:44:18.711Z,9.73
2019-04-21T23:46:51.086Z,8.98
2019-04-21T23:49:31.951Z,8.35
2019-04-21T23:51:56.774Z,8.08
2019-04-21T23:54:20.117Z,8.35
2019-04-21T23:56:49.607Z,7.70
2019-04-21T23:59:20.463Z,7.80
